Time;durP1;ratioP1;P1;durP2;ratioP2;P2;SDS_P1;SDS_P2;PMS_P1;PMS_P2;Temp;Humidity;BMP_temperature;BMP_pressure;BME280_temperature;BME280_humidity;BME280_pressure;Samples;Min_cycle;Max_cycle;Signal;HPM_P1;HPM_P2
2022/09/02 00:01:46;;;;;;;5.90;2.88;;;;;;;;;;5053372;28;20056;-64
2022/09/02 00:04:20;;;;;;;10.00;3.03;;;;;;;;;;5052945;28;20024;-65
2022/09/02 00:06:48;;;;;;;7.63;3.00;;;;;;;;;;5052766;28;20064;-66
2022/09/02 00:09:17;;;;;;;6.15;2.90;;;;;;;;;;5052876;28;20032;-64
2022/09/02 00:11:45;;;;;;;6.10;2.63;;;;;;;;;;5052678;28;20079;-64
2022/09/02 00:14:16;;;;;;;10.57;3.17;;;;;;;;;;5052620;28;20033;-67
2022/09/02 00:16:50;;;;;;;8.02;2.75;;;;;;;;;;5052050;28;20082;-65
2022/09/02 00:19:17;;;;;;;8.10;3.15;;;;;;;;;;5052694;28;20036;-65
2022/09/02 00:21:44;;;;;;;5.20;2.80;;;;;;;;;;5052856;28;20071;-63
2022/09/02 00:24:09;;;;;;;4.75;2.45;;;;;;;;;;5052603;28;20377;-66
2022/09/02 00:26:35;;;;;;;6.40;2.50;;;;;;;;;;5051299;28;20044;-67
2022/09/02 00:29:01;;;;;;;4.25;2.72;;;;;;;;;;5052454;28;20037;-66
2022/09/02 00:31:27;;;;;;;7.13;2.67;;;;;;;;;;5052605;28;20036;-70
2022/09/02 00:33:53;;;;;;;6.40;2.55;;;;;;;;;;5052540;28;20040;-69
2022/09/02 00:36:19;;;;;;;4.78;2.50;;;;;;;;;;5037275;28;20392;-67
2022/09/02 00:38:46;;;;;;;4.28;2.50;;;;;;;;;;5032194;28;20044;-66
2022/09/02 00:41:12;;;;;;;4.32;2.85;;;;;;;;;;5032449;28;20025;-67
2022/09/02 00:43:40;;;;;;;6.97;2.60;;;;;;;;;;5043092;28;20049;-67
2022/09/02 00:46:06;;;;;;;5.38;2.70;;;;;;;;;;5052388;28;20040;-67
2022/09/02 00:48:33;;;;;;;5.55;2.80;;;;;;;;;;5052359;28;20021;-69
2022/09/02 00:50:59;;;;;;;6.63;2.88;;;;;;;;;;5052086;28;20082;-68
2022/09/02 00:53:25;;;;;;;5.63;2.83;;;;;;;;;;5052188;28;20025;-67
2022/09/02 00:55:51;;;;;;;13.43;2.67;;;;;;;;;;5052321;28;20031;-68
2022/09/02 00:58:24;;;;;;;6.60;3.08;;;;;;;;;;5052287;28;20120;-68
2022/09/02 01:00:55;;;;;;;5.55;2.58;;;;;;;;;;5052202;28;20040;-67
2022/09/02 01:03:22;;;;;;;4.53;2.45;;;;;;;;;;5052231;28;20022;-68
2022/09/02 01:05:49;;;;;;;4.25;2.65;;;;;;;;;;5052120;28;20029;-67
2022/09/02 01:08:19;;;;;;;5.45;2.78;;;;;;;;;;5052013;28;20074;-68
2022/09/02 01:10:47;;;;;;;9.52;2.60;;;;;;;;;;5052060;28;20025;-64
2022/09/02 01:13:17;;;;;;;4.07;2.60;;;;;;;;;;5052134;28;20108;-69
2022/09/02 01:15:50;;;;;;;5.88;2.88;;;;;;;;;;5052079;28;20021;-70
2022/09/02 01:18:19;;;;;;;5.97;2.85;;;;;;;;;;5052320;28;20033;-68
2022/09/02 01:20:45;;;;;;;6.43;2.50;;;;;;;;;;5052003;28;20048;-68
2022/09/02 01:23:11;;;;;;;6.18;2.95;;;;;;;;;;5051931;28;20469;-69
2022/09/02 01:25:37;;;;;;;10.95;2.55;;;;;;;;;;5051899;28;20036;-67
2022/09/02 01:28:13;;;;;;;7.72;3.10;;;;;;;;;;5054946;28;20021;-66
2022/09/02 01:30:43;;;;;;;6.47;2.78;;;;;;;;;;5055959;28;20036;-68
2022/09/02 01:33:09;;;;;;;6.43;2.55;;;;;;;;;;5055849;28;20024;-68
2022/09/02 01:35:35;;;;;;;4.88;2.60;;;;;;;;;;5040046;28;20084;-67
2022/09/02 01:38:01;;;;;;;9.57;2.90;;;;;;;;;;5033651;28;20037;-67
2022/09/02 01:40:28;;;;;;;6.07;2.72;;;;;;;;;;5035540;28;20033;-66
2022/09/02 01:43:00;;;;;;;5.95;2.60;;;;;;;;;;5032888;28;20562;-68
2022/09/02 01:45:27;;;;;;;7.90;2.63;;;;;;;;;;5035656;28;20092;-64
2022/09/02 01:47:52;;;;;;;6.18;2.60;;;;;;;;;;5035068;28;20032;-67
2022/09/02 01:50:18;;;;;;;7.43;2.60;;;;;;;;;;5035605;28;20473;-67
2022/09/02 01:52:44;;;;;;;6.68;2.60;;;;;;;;;;5035244;28;20033;-68
2022/09/02 01:55:10;;;;;;;7.72;2.55;;;;;;;;;;5035509;28;20124;-68
2022/09/02 01:57:35;;;;;;;9.50;2.45;;;;;;;;;;5030202;28;20029;-67
2022/09/02 02:00:02;;;;;;;6.75;2.63;;;;;;;;;;5034374;28;20399;-69
2022/09/02 02:02:28;;;;;;;7.57;2.53;;;;;;;;;;5035345;28;20029;-64
2022/09/02 02:04:53;;;;;;;9.55;2.10;;;;;;;;;;5035200;28;20341;-68
2022/09/02 02:07:21;;;;;;;6.32;2.40;;;;;;;;;;5035160;28;20460;-69
2022/09/02 02:09:47;;;;;;;7.10;2.40;;;;;;;;;;5035139;28;20032;-66
2022/09/02 02:12:14;;;;;;;4.43;2.20;;;;;;;;;;5035358;28;20047;-68
2022/09/02 02:14:40;;;;;;;5.95;2.22;;;;;;;;;;5035105;28;20033;-68
2022/09/02 02:17:05;;;;;;;3.30;2.20;;;;;;;;;;5035084;28;20030;-66
2022/09/02 02:19:32;;;;;;;6.55;2.35;;;;;;;;;;5035218;28;20111;-67
2022/09/02 02:21:57;;;;;;;5.47;3.22;;;;;;;;;;5034857;28;20048;-68
2022/09/02 02:24:23;;;;;;;12.07;4.57;;;;;;;;;;5034989;28;20025;-67
2022/09/02 02:26:49;;;;;;;6.70;4.25;;;;;;;;;;5034852;28;20357;-65
2022/09/02 02:29:15;;;;;;;4.70;3.45;;;;;;;;;;5035009;28;20112;-66
2022/09/02 02:31:41;;;;;;;4.97;2.72;;;;;;;;;;5034842;28;20511;-68
2022/09/02 02:34:06;;;;;;;6.47;3.20;;;;;;;;;;5034969;28;20042;-68
2022/09/02 02:36:32;;;;;;;4.50;2.70;;;;;;;;;;5034123;28;20032;-69
2022/09/02 02:39:00;;;;;;;5.82;2.90;;;;;;;;;;5033955;28;20022;-65
2022/09/02 02:41:26;;;;;;;5.18;2.47;;;;;;;;;;5034762;28;20029;-64
2022/09/02 02:43:52;;;;;;;6.18;2.80;;;;;;;;;;5047203;28;20052;-65
2022/09/02 02:46:18;;;;;;;6.47;3.03;;;;;;;;;;5054508;28;20025;-66
2022/09/02 02:48:43;;;;;;;4.95;2.50;;;;;;;;;;5054337;28;20025;-68
2022/09/02 02:51:09;;;;;;;5.50;2.63;;;;;;;;;;5054153;28;20029;-67
2022/09/02 02:53:35;;;;;;;6.57;2.35;;;;;;;;;;5054442;28;20071;-66
2022/09/02 02:56:03;;;;;;;3.75;2.38;;;;;;;;;;5054221;28;20029;-65
2022/09/02 02:58:28;;;;;;;3.45;2.20;;;;;;;;;;5054287;28;20103;-66
2022/09/02 03:00:55;;;;;;;8.07;3.58;;;;;;;;;;5054036;28;20052;-65
2022/09/02 03:03:21;;;;;;;4.25;2.38;;;;;;;;;;5054189;28;20404;-65
2022/09/02 03:05:47;;;;;;;6.93;3.40;;;;;;;;;;5053768;28;20083;-68
2022/09/02 03:08:14;;;;;;;6.82;2.60;;;;;;;;;;5054242;28;20021;-65
2022/09/02 03:10:41;;;;;;;3.88;2.50;;;;;;;;;;5035469;28;20026;-67
2022/09/02 03:13:08;;;;;;;4.88;2.63;;;;;;;;;;5033965;28;20033;-64
2022/09/02 03:15:35;;;;;;;5.53;2.55;;;;;;;;;;5034017;28;20037;-69
2022/09/02 03:18:02;;;;;;;5.55;2.30;;;;;;;;;;5033956;28;20469;-68
2022/09/02 03:20:28;;;;;;;3.80;2.17;;;;;;;;;;5033526;28;20021;-66
2022/09/02 03:22:55;;;;;;;7.20;2.38;;;;;;;;;;5033954;28;20028;-65
2022/09/02 03:25:22;;;;;;;14.13;3.03;;;;;;;;;;5033697;28;20029;-65
2022/09/02 03:27:48;;;;;;;7.05;2.20;;;;;;;;;;5033858;28;20080;-66
2022/09/02 03:30:26;;;;;;;7.68;2.10;;;;;;;;;;5027526;28;20531;-68
2022/09/02 03:32:55;;;;;;;10.90;4.15;;;;;;;;;;5033590;28;20044;-65
2022/09/02 03:35:22;;;;;;;5.25;2.65;;;;;;;;;;5033518;28;20432;-69
2022/09/02 03:37:50;;;;;;;8.77;2.72;;;;;;;;;;5033615;28;20061;-68
2022/09/02 03:40:18;;;;;;;21.80;3.53;;;;;;;;;;5033717;28;20079;-68
2022/09/02 03:42:44;;;;;;;10.75;2.75;;;;;;;;;;5033207;28;20045;-65
2022/09/02 03:45:10;;;;;;;13.63;3.00;;;;;;;;;;5032302;28;20400;-68
2022/09/02 03:47:39;;;;;;;9.20;2.60;;;;;;;;;;5033327;28;20033;-68
2022/09/02 03:50:05;;;;;;;6.40;2.80;;;;;;;;;;5033538;28;20365;-68
2022/09/02 03:52:31;;;;;;;4.38;2.50;;;;;;;;;;5033628;28;20033;-68
2022/09/02 03:54:56;;;;;;;5.57;2.70;;;;;;;;;;5033283;28;20032;-69
2022/09/02 03:57:24;;;;;;;6.07;2.58;;;;;;;;;;5033477;28;20052;-68
2022/09/02 03:59:50;;;;;;;10.65;3.40;;;;;;;;;;5033512;28;20384;-69
2022/09/02 04:02:16;;;;;;;8.52;2.72;;;;;;;;;;5033041;28;20040;-67
2022/09/02 04:04:42;;;;;;;8.57;2.58;;;;;;;;;;5032967;28;20472;-64
2022/09/02 04:07:08;;;;;;;5.95;2.55;;;;;;;;;;5032743;28;20091;-64
2022/09/02 04:09:33;;;;;;;4.57;2.10;;;;;;;;;;5033038;28;20051;-68
2022/09/02 04:11:59;;;;;;;9.50;2.63;;;;;;;;;;5032948;28;20017;-68
2022/09/02 04:14:24;;;;;;;12.57;2.55;;;;;;;;;;5032991;28;20384;-69
2022/09/02 04:16:49;;;;;;;7.30;2.30;;;;;;;;;;5032936;28;20117;-67
2022/09/02 04:19:15;;;;;;;4.70;1.95;;;;;;;;;;5033045;28;20021;-66
2022/09/02 04:21:41;;;;;;;6.63;1.92;;;;;;;;;;5031709;28;20029;-65
2022/09/02 04:24:08;;;;;;;5.07;2.05;;;;;;;;;;5032704;28;20096;-69
2022/09/02 04:26:35;;;;;;;4.70;1.67;;;;;;;;;;5032587;28;20029;-67
2022/09/02 04:29:00;;;;;;;4.82;1.83;;;;;;;;;;5032559;28;20052;-68
2022/09/02 04:31:28;;;;;;;5.95;2.00;;;;;;;;;;5032753;28;20029;-65
2022/09/02 04:33:55;;;;;;;2.97;1.98;;;;;;;;;;5032618;28;20500;-68
2022/09/02 04:36:24;;;;;;;3.45;1.77;;;;;;;;;;5032350;28;20113;-64
2022/09/02 04:38:50;;;;;;;4.00;1.88;;;;;;;;;;5032559;28;20037;-68
2022/09/02 04:41:23;;;;;;;2.95;1.98;;;;;;;;;;5032645;28;20492;-68
2022/09/02 04:43:51;;;;;;;4.18;2.00;;;;;;;;;;5032117;28;20397;-67
2022/09/02 04:46:17;;;;;;;3.42;1.90;;;;;;;;;;5032553;28;20044;-66
2022/09/02 04:48:43;;;;;;;5.80;2.00;;;;;;;;;;5032677;28;20101;-67
2022/09/02 04:51:12;;;;;;;4.72;2.00;;;;;;;;;;5032621;28;20091;-67
2022/09/02 04:53:39;;;;;;;4.53;1.80;;;;;;;;;;5032593;28;20025;-69
2022/09/02 04:56:07;;;;;;;3.38;1.60;;;;;;;;;;5032697;28;20495;-68
2022/09/02 04:58:33;;;;;;;3.83;1.85;;;;;;;;;;5032415;28;20037;-68
2022/09/02 05:01:05;;;;;;;3.22;1.70;;;;;;;;;;5032336;28;20021;-67
2022/09/02 05:03:30;;;;;;;4.72;2.00;;;;;;;;;;5039047;28;20364;-69
2022/09/02 05:06:03;;;;;;;4.65;2.03;;;;;;;;;;5038807;28;20052;-68
2022/09/02 05:08:29;;;;;;;3.97;1.80;;;;;;;;;;5038968;28;20396;-65
2022/09/02 05:10:55;;;;;;;5.30;2.15;;;;;;;;;;5039097;28;20108;-64
2022/09/02 05:13:21;;;;;;;3.22;2.00;;;;;;;;;;5038941;28;20036;-68
2022/09/02 05:15:47;;;;;;;4.47;1.75;;;;;;;;;;5038448;28;20072;-68
2022/09/02 05:18:12;;;;;;;4.72;2.05;;;;;;;;;;5039050;28;20029;-66
2022/09/02 05:20:38;;;;;;;5.60;2.42;;;;;;;;;;5038929;28;20030;-69
2022/09/02 05:23:05;;;;;;;5.10;2.30;;;;;;;;;;5038868;28;20469;-67
2022/09/02 05:25:31;;;;;;;6.55;2.80;;;;;;;;;;5038869;28;20033;-68
2022/09/02 05:27:57;;;;;;;3.95;1.85;;;;;;;;;;5038847;28;20032;-65
2022/09/02 05:30:23;;;;;;;3.33;1.88;;;;;;;;;;5038440;28;20032;-64
2022/09/02 05:32:48;;;;;;;5.63;2.60;;;;;;;;;;5038627;28;20461;-67
2022/09/02 05:35:15;;;;;;;4.20;2.15;;;;;;;;;;5038641;28;20037;-66
2022/09/02 05:37:40;;;;;;;7.82;2.08;;;;;;;;;;5038650;28;20026;-64
2022/09/02 05:40:07;;;;;;;4.95;2.30;;;;;;;;;;5038639;28;20029;-63
2022/09/02 05:42:32;;;;;;;4.78;2.03;;;;;;;;;;5038368;28;20041;-68
2022/09/02 05:44:58;;;;;;;6.18;2.20;;;;;;;;;;5038465;28;20395;-67
2022/09/02 05:47:24;;;;;;;3.63;2.35;;;;;;;;;;5038710;28;20531;-64
2022/09/02 05:49:49;;;;;;;6.75;2.95;;;;;;;;;;5038552;28;20025;-66
2022/09/02 05:52:16;;;;;;;5.97;2.47;;;;;;;;;;5038521;28;20483;-69
2022/09/02 05:54:42;;;;;;;11.68;2.65;;;;;;;;;;5038614;28;20029;-66
2022/09/02 05:57:12;;;;;;;10.43;2.53;;;;;;;;;;5037522;28;20099;-65
2022/09/02 05:59:41;;;;;;;7.75;2.80;;;;;;;;;;5038641;28;20031;-65
2022/09/02 06:02:09;;;;;;;6.65;2.78;;;;;;;;;;5038613;28;20029;-65
2022/09/02 06:04:40;;;;;;;9.90;2.80;;;;;;;;;;5038550;28;20041;-68
2022/09/02 06:07:05;;;;;;;14.45;2.92;;;;;;;;;;5038523;28;20039;-64
2022/09/02 06:09:32;;;;;;;13.00;2.60;;;;;;;;;;5038860;28;20437;-68
2022/09/02 06:11:57;;;;;;;11.45;3.08;;;;;;;;;;5037349;28;20037;-66
2022/09/02 06:14:24;;;;;;;9.75;2.97;;;;;;;;;;5034486;28;20026;-68
2022/09/02 06:16:50;;;;;;;9.65;2.78;;;;;;;;;;5035425;28;20026;-69
2022/09/02 06:19:17;;;;;;;6.45;2.70;;;;;;;;;;5035272;28;20025;-68
2022/09/02 06:21:42;;;;;;;4.72;2.50;;;;;;;;;;5035198;28;20028;-68
2022/09/02 06:24:10;;;;;;;11.32;2.70;;;;;;;;;;5034899;28;20025;-67
2022/09/02 06:26:36;;;;;;;5.78;2.65;;;;;;;;;;5034725;28;20025;-65
2022/09/02 06:29:03;;;;;;;8.55;2.70;;;;;;;;;;5035149;28;20079;-69
2022/09/02 06:31:28;;;;;;;5.88;2.47;;;;;;;;;;5035446;28;20475;-68
2022/09/02 06:33:55;;;;;;;5.07;2.45;;;;;;;;;;5034994;28;20089;-69
2022/09/02 06:36:22;;;;;;;7.53;2.40;;;;;;;;;;5034981;28;20105;-67
2022/09/02 06:38:50;;;;;;;7.95;2.38;;;;;;;;;;5034964;28;20028;-68
2022/09/02 06:41:18;;;;;;;6.93;2.40;;;;;;;;;;5034651;28;20387;-68
2022/09/02 06:43:44;;;;;;;6.57;2.50;;;;;;;;;;5045490;28;20041;-68
2022/09/02 06:46:20;;;;;;;11.25;3.22;;;;;;;;;;5033516;28;20456;-69
2022/09/02 06:48:47;;;;;;;5.72;2.17;;;;;;;;;;5034676;28;20026;-69
2022/09/02 06:51:22;;;;;;;8.52;2.30;;;;;;;;;;5034897;28;20062;-66
2022/09/02 06:53:47;;;;;;;5.20;2.13;;;;;;;;;;5034828;28;20154;-67
2022/09/02 06:56:13;;;;;;;6.38;2.15;;;;;;;;;;5034394;28;20056;-69
2022/09/02 06:58:39;;;;;;;9.35;1.95;;;;;;;;;;5034635;28;20638;-68
2022/09/02 07:01:04;;;;;;;5.07;2.40;;;;;;;;;;5034496;28;20033;-68
2022/09/02 07:06:14;;;;;;;7.35;2.28;;;;;;;;;;5034246;28;20040;-68
2022/09/02 07:08:41;;;;;;;6.85;2.15;;;;;;;;;;5033267;28;20455;-67
2022/09/02 07:11:17;;;;;;;10.50;2.33;;;;;;;;;;5033504;28;20280;-67
2022/09/02 07:13:43;;;;;;;7.75;3.03;;;;;;;;;;5034023;28;20473;-68
2022/09/02 07:16:08;;;;;;;8.18;2.80;;;;;;;;;;5034227;28;20112;-68
2022/09/02 07:18:35;;;;;;;11.25;2.70;;;;;;;;;;5033950;28;20029;-69
2022/09/02 07:21:01;;;;;;;12.35;3.03;;;;;;;;;;5033988;28;20049;-67
2022/09/02 07:23:26;;;;;;;13.20;3.10;;;;;;;;;;5034035;28;20076;-67
2022/09/02 07:25:54;;;;;;;10.15;2.80;;;;;;;;;;5033424;28;20112;-69
2022/09/02 07:28:21;;;;;;;9.40;2.80;;;;;;;;;;5033425;28;20443;-68
2022/09/02 07:30:47;;;;;;;8.77;2.63;;;;;;;;;;5033928;28;20168;-68
2022/09/02 07:33:14;;;;;;;12.25;2.97;;;;;;;;;;5033714;28;20136;-67
2022/09/02 07:35:43;;;;;;;10.60;2.65;;;;;;;;;;5033570;28;20560;-68
2022/09/02 07:38:10;;;;;;;14.60;3.13;;;;;;;;;;5033774;28;20037;-69
2022/09/02 07:40:37;;;;;;;8.60;3.13;;;;;;;;;;5033337;28;20508;-71
2022/09/02 07:43:04;;;;;;;7.57;2.53;;;;;;;;;;5033152;28;20052;-65
2022/09/02 07:45:30;;;;;;;7.22;2.63;;;;;;;;;;5033193;28;20041;-67
2022/09/02 07:47:56;;;;;;;10.88;2.47;;;;;;;;;;5033488;28;20098;-69
2022/09/02 07:50:25;;;;;;;9.88;2.35;;;;;;;;;;5033454;28;20120;-67
2022/09/02 07:52:52;;;;;;;4.63;2.17;;;;;;;;;;5033420;28;20108;-68
2022/09/02 07:55:18;;;;;;;7.03;2.42;;;;;;;;;;5033120;28;20037;-68
2022/09/02 07:57:45;;;;;;;6.75;2.53;;;;;;;;;;5033331;28;20021;-65
2022/09/02 08:00:12;;;;;;;4.93;1.98;;;;;;;;;;5033325;28;20025;-68
2022/09/02 08:02:38;;;;;;;3.90;2.17;;;;;;;;;;5033172;28;20021;-68
2022/09/02 08:05:03;;;;;;;5.65;2.30;;;;;;;;;;5033159;28;20026;-68
2022/09/02 08:07:29;;;;;;;8.30;1.98;;;;;;;;;;5033061;28;20182;-68
2022/09/02 08:09:54;;;;;;;5.07;2.30;;;;;;;;;;5032847;28;20037;-67
2022/09/02 08:12:20;;;;;;;6.93;2.38;;;;;;;;;;5033109;28;20029;-68
2022/09/02 08:14:46;;;;;;;7.63;2.38;;;;;;;;;;5032993;28;20032;-64
2022/09/02 08:17:11;;;;;;;5.65;2.10;;;;;;;;;;5032891;28;20025;-64
2022/09/02 08:19:37;;;;;;;9.45;2.25;;;;;;;;;;5032986;28;20416;-64
2022/09/02 08:22:07;;;;;;;9.27;2.10;;;;;;;;;;5032902;28;20037;-68
2022/09/02 08:24:33;;;;;;;7.47;2.17;;;;;;;;;;5032457;28;20516;-64
2022/09/02 08:26:59;;;;;;;5.25;2.10;;;;;;;;;;5032520;28;20116;-65
2022/09/02 08:29:24;;;;;;;7.28;2.35;;;;;;;;;;5032690;28;20210;-67
2022/09/02 08:31:50;;;;;;;10.68;2.70;;;;;;;;;;5032778;28;20025;-65
2022/09/02 08:34:15;;;;;;;5.57;2.05;;;;;;;;;;5032537;28;20479;-67
2022/09/02 08:36:42;;;;;;;8.90;2.47;;;;;;;;;;5032135;28;20092;-68
2022/09/02 08:39:09;;;;;;;5.32;2.13;;;;;;;;;;5032430;28;20476;-64
2022/09/02 08:42:00;;;;;;;4.75;2.00;;;;;;;;;;5032599;28;20048;-65
2022/09/02 08:44:27;;;;;;;3.97;1.70;;;;;;;;;;5043127;28;20041;-63
2022/09/02 08:46:56;;;;;;;6.85;2.20;;;;;;;;;;5032496;28;20080;-62
2022/09/02 08:49:30;;;;;;;4.68;1.70;;;;;;;;;;5032563;28;20025;-63
2022/09/02 08:51:58;;;;;;;4.85;1.80;;;;;;;;;;5032248;28;20064;-63
2022/09/02 08:54:45;;;;;;;6.50;2.13;;;;;;;;;;5032251;28;20026;-63
2022/09/02 08:57:11;;;;;;;5.10;1.60;;;;;;;;;;5032377;28;20029;-64
2022/09/02 08:59:37;;;;;;;2.92;1.50;;;;;;;;;;5032386;28;20025;-64
2022/09/02 09:02:29;;;;;;;4.32;1.67;;;;;;;;;;5032434;28;20472;-63
2022/09/02 09:05:13;;;;;;;2.58;1.33;;;;;;;;;;5010281;28;20050;-64
2022/09/02 09:08:18;;;;;;;4.13;1.40;;;;;;;;;;5010294;28;20046;-64
2022/09/02 09:10:55;;;;;;;5.75;1.70;;;;;;;;;;4952188;29;20043;-64
2022/09/02 09:13:39;;;;;;;3.95;1.10;;;;;;;;;;4952158;29;20035;-64
2022/09/02 09:16:24;;;;;;;3.35;1.17;;;;;;;;;;4952112;29;20047;-63
2022/09/02 09:19:07;;;;;;;1.45;1.00;;;;;;;;;;4933375;29;20411;-64
2022/09/02 09:21:33;;;;;;;2.85;1.30;;;;;;;;;;4932605;29;20063;-63
2022/09/02 09:24:06;;;;;;;6.07;1.13;;;;;;;;;;4932805;29;20134;-64
2022/09/02 09:26:37;;;;;;;2.10;1.10;;;;;;;;;;4932845;29;20058;-65
2022/09/02 09:29:03;;;;;;;5.53;1.38;;;;;;;;;;4932568;29;20475;-64
2022/09/02 09:31:31;;;;;;;2.60;1.00;;;;;;;;;;4932815;29;20484;-65
2022/09/02 09:34:05;;;;;;;2.40;1.15;;;;;;;;;;4932609;29;20044;-64
2022/09/02 09:36:39;;;;;;;3.13;1.15;;;;;;;;;;4932274;29;20058;-65
2022/09/02 09:39:29;;;;;;;1.42;0.90;;;;;;;;;;4932729;29;20067;-66
2022/09/02 09:42:00;;;;;;;6.53;1.30;;;;;;;;;;4942127;29;20047;-65
2022/09/02 09:44:44;;;;;;;4.78;1.20;;;;;;;;;;4968355;28;20038;-64
2022/09/02 09:47:24;;;;;;;1.70;0.88;;;;;;;;;;4992282;28;20042;-65
2022/09/02 09:49:52;;;;;;;2.28;1.25;;;;;;;;;;5035344;28;20026;-64
2022/09/02 09:52:26;;;;;;;4.15;1.15;;;;;;;;;;5035747;28;20033;-64
2022/09/02 09:55:11;;;;;;;3.78;1.10;;;;;;;;;;5035693;28;20450;-66
2022/09/02 09:57:41;;;;;;;2.63;1.20;;;;;;;;;;5035543;28;20112;-64
2022/09/02 10:00:33;;;;;;;3.40;1.08;;;;;;;;;;5035738;28;20037;-63
2022/09/02 10:03:02;;;;;;;5.32;1.10;;;;;;;;;;5035513;28;20037;-66
2022/09/02 10:05:30;;;;;;;3.17;1.30;;;;;;;;;;5035135;28;20120;-64
2022/09/02 10:08:02;;;;;;;5.20;1.23;;;;;;;;;;5030920;28;20030;-66
2022/09/02 10:10:30;;;;;;;3.08;1.08;;;;;;;;;;5033568;28;20488;-63
2022/09/02 10:13:15;;;;;;;2.58;1.00;;;;;;;;;;5035343;28;20051;-64
2022/09/02 10:15:58;;;;;;;2.20;0.93;;;;;;;;;;5035234;28;20423;-65
2022/09/02 10:18:42;;;;;;;2.50;1.20;;;;;;;;;;5034999;28;20026;-66
2022/09/02 10:21:17;;;;;;;1.83;0.90;;;;;;;;;;5034968;28;20140;-66
2022/09/02 10:24:02;;;;;;;2.90;1.10;;;;;;;;;;5035002;28;20032;-65
2022/09/02 10:26:34;;;;;;;2.15;1.10;;;;;;;;;;5034849;28;20033;-67
2022/09/02 10:29:26;;;;;;;2.03;0.98;;;;;;;;;;5034770;28;20432;-64
2022/09/02 10:32:12;;;;;;;1.75;0.95;;;;;;;;;;5033905;28;20033;-66
2022/09/02 10:34:40;;;;;;;2.55;1.05;;;;;;;;;;4992848;28;20038;-66
2022/09/02 10:37:13;;;;;;;2.13;0.93;;;;;;;;;;4993137;28;20054;-63
2022/09/02 10:40:21;;;;;;;1.40;0.90;;;;;;;;;;4991712;28;20042;-64
2022/09/02 10:43:06;;;;;;;1.65;0.95;;;;;;;;;;4983149;28;20125;-67
2022/09/02 10:45:50;;;;;;;2.00;0.80;;;;;;;;;;4986194;28;20042;-64
2022/09/02 10:48:34;;;;;;;2.85;0.75;;;;;;;;;;4992574;28;20140;-66
2022/09/02 10:51:09;;;;;;;3.75;1.10;;;;;;;;;;4992573;28;20046;-67
2022/09/02 10:53:46;;;;;;;2.40;1.10;;;;;;;;;;4992890;28;20612;-64
2022/09/02 10:56:15;;;;;;;2.17;1.17;;;;;;;;;;4992953;28;20421;-63
2022/09/02 10:58:47;;;;;;;3.17;1.23;;;;;;;;;;4992652;28;20049;-64
2022/09/02 11:01:27;;;;;;;1.90;1.17;;;;;;;;;;4992064;28;20038;-64
2022/09/02 11:04:02;;;;;;;2.50;1.10;;;;;;;;;;4992533;28;20465;-63
2022/09/02 11:06:31;;;;;;;1.58;0.82;;;;;;;;;;4992380;28;20045;-65
2022/09/02 11:09:19;;;;;;;2.55;0.88;;;;;;;;;;4992509;28;20030;-67
2022/09/02 11:11:56;;;;;;;2.42;0.90;;;;;;;;;;5003577;28;20034;-66
2022/09/02 11:14:21;;;;;;;3.33;0.90;;;;;;;;;;5013724;28;20390;-66
2022/09/02 11:17:01;;;;;;;4.55;0.90;;;;;;;;;;5014015;28;20029;-67
2022/09/02 11:19:48;;;;;;;3.00;1.20;;;;;;;;;;5014220;28;20412;-66
2022/09/02 11:22:22;;;;;;;1.67;1.02;;;;;;;;;;5014106;28;20034;-64
2022/09/02 11:25:08;;;;;;;3.13;1.20;;;;;;;;;;5014523;28;20396;-67
2022/09/02 11:27:40;;;;;;;2.60;1.00;;;;;;;;;;5013901;28;20030;-66
2022/09/02 11:30:16;;;;;;;3.60;0.85;;;;;;;;;;5013590;28;20030;-65
2022/09/02 11:32:53;;;;;;;3.42;1.30;;;;;;;;;;5013729;28;20056;-66
2022/09/02 11:35:26;;;;;;;1.52;0.90;;;;;;;;;;5013953;28;20544;-65
2022/09/02 11:38:03;;;;;;;2.30;1.00;;;;;;;;;;5013856;28;20030;-63
2022/09/02 11:40:43;;;;;;;1.25;0.73;;;;;;;;;;5013792;28;20392;-65
2022/09/02 11:43:14;;;;;;;1.45;0.65;;;;;;;;;;5027313;28;20095;-69
2022/09/02 11:46:04;;;;;;;2.13;0.90;;;;;;;;;;5036609;28;20329;-67
2022/09/02 11:48:58;;;;;;;3.80;0.98;;;;;;;;;;5033123;28;20032;-63
2022/09/02 11:51:42;;;;;;;2.47;0.93;;;;;;;;;;5033334;28;20033;-65
2022/09/02 11:54:12;;;;;;;1.35;0.77;;;;;;;;;;5033314;28;20070;-68
2022/09/02 11:56:44;;;;;;;1.77;0.90;;;;;;;;;;5033169;28;20017;-67
2022/09/02 11:59:41;;;;;;;2.90;0.80;;;;;;;;;;5033115;28;20485;-69
2022/09/02 12:02:06;;;;;;;1.77;0.70;;;;;;;;;;5032647;28;20108;-69
2022/09/02 12:04:32;;;;;;;2.97;0.60;;;;;;;;;;5032787;28;20053;-67
2022/09/02 12:07:12;;;;;;;2.38;0.85;;;;;;;;;;5032888;28;20082;-69
2022/09/02 12:09:48;;;;;;;;;;;;;;;;;;5033292;28;20112;-67
2022/09/02 12:12:35;;;;;;;3.13;0.80;;;;;;;;;;5031965;28;19951;-64
2022/09/02 12:15:04;;;;;;;1.25;0.77;;;;;;;;;;5032197;28;20025;-69
2022/09/02 12:17:48;;;;;;;1.85;0.70;;;;;;;;;;5032838;28;20034;-69
2022/09/02 12:20:40;;;;;;;1.80;0.80;;;;;;;;;;5033050;28;20035;-65
2022/09/02 12:23:29;;;;;;;5.03;0.80;;;;;;;;;;5032703;28;20064;-67
2022/09/02 12:26:05;;;;;;;1.57;0.80;;;;;;;;;;5032721;28;20030;-69
2022/09/02 12:28:32;;;;;;;2.35;0.70;;;;;;;;;;5032161;28;20370;-64
2022/09/02 12:31:01;;;;;;;2.05;0.73;;;;;;;;;;5032277;28;20033;-65
2022/09/02 12:33:31;;;;;;;1.88;0.80;;;;;;;;;;5032546;28;20026;-64
2022/09/02 12:35:58;;;;;;;1.75;0.70;;;;;;;;;;5031705;28;20507;-67
2022/09/02 12:38:29;;;;;;;1.63;0.80;;;;;;;;;;5032077;28;20104;-66
2022/09/02 12:41:03;;;;;;;2.10;0.98;;;;;;;;;;5031737;28;20040;-65
2022/09/02 12:43:49;;;;;;;3.05;0.70;;;;;;;;;;5041866;28;20622;-68
2022/09/02 12:46:31;;;;;;;3.80;0.90;;;;;;;;;;5032159;28;20037;-64
2022/09/02 12:49:18;;;;;;;2.15;0.73;;;;;;;;;;5032206;28;20480;-66
2022/09/02 12:51:58;;;;;;;1.58;0.88;;;;;;;;;;5032277;28;20037;-65
2022/09/02 12:54:35;;;;;;;1.83;0.90;;;;;;;;;;5032246;28;20025;-68
2022/09/02 12:57:02;;;;;;;1.27;0.75;;;;;;;;;;5032267;28;20098;-67
2022/09/02 12:59:31;;;;;;;4.18;0.70;;;;;;;;;;5031998;28;20469;-63
2022/09/02 13:02:05;;;;;;;3.33;0.80;;;;;;;;;;5032328;28;20108;-69
2022/09/02 13:04:37;;;;;;;1.90;1.00;;;;;;;;;;5031754;28;20037;-67
2022/09/02 13:07:31;;;;;;;1.80;0.82;;;;;;;;;;5032183;28;20390;-63
2022/09/02 13:10:09;;;;;;;3.15;0.88;;;;;;;;;;5031961;28;20037;-68
2022/09/02 13:12:34;;;;;;;1.33;0.60;;;;;;;;;;5032100;28;20030;-69
2022/09/02 13:15:56;;;;;;;1.45;0.80;;;;;;;;;;5031742;28;20030;-63
2022/09/02 13:18:40;;;;;;;3.40;0.77;;;;;;;;;;4990150;28;20543;-68
2022/09/02 13:21:27;;;;;;;3.65;0.90;;;;;;;;;;4990550;28;20117;-65
2022/09/02 13:24:23;;;;;;;2.72;0.90;;;;;;;;;;4993015;28;20042;-69
2022/09/02 13:27:12;;;;;;;2.90;0.80;;;;;;;;;;4994628;28;20077;-63
2022/09/02 13:29:49;;;;;;;2.58;0.90;;;;;;;;;;4994367;28;20084;-69
2022/09/02 13:32:18;;;;;;;1.52;0.80;;;;;;;;;;4994564;28;20504;-65
2022/09/02 13:34:46;;;;;;;2.97;0.98;;;;;;;;;;4994319;28;20441;-67
2022/09/02 13:37:34;;;;;;;2.45;0.70;;;;;;;;;;4994358;28;20034;-68
2022/09/02 13:40:23;;;;;;;2.25;0.90;;;;;;;;;;4989195;28;20066;-69
2022/09/02 13:42:54;;;;;;;1.23;0.70;;;;;;;;;;4993770;28;20039;-69
2022/09/02 13:45:47;;;;;;;3.58;0.60;;;;;;;;;;4993836;28;20116;-68
2022/09/02 13:48:22;;;;;;;1.45;0.70;;;;;;;;;;5001383;28;20041;-68
2022/09/02 13:50:49;;;;;;;2.22;0.70;;;;;;;;;;5035020;28;20030;-69
2022/09/02 13:53:46;;;;;;;2.05;0.70;;;;;;;;;;5035392;28;20080;-67
2022/09/02 13:56:14;;;;;;;1.30;0.75;;;;;;;;;;5022897;28;20037;-69
2022/09/02 13:58:45;;;;;;;3.00;1.00;;;;;;;;;;5034934;28;20029;-65
2022/09/02 14:01:26;;;;;;;2.35;0.80;;;;;;;;;;5035496;28;20109;-65
2022/09/02 14:03:53;;;;;;;1.17;0.70;;;;;;;;;;5035265;28;20104;-67
2022/09/02 14:06:25;;;;;;;3.90;0.77;;;;;;;;;;5035015;28;20022;-67
2022/09/02 14:09:00;;;;;;;1.77;0.70;;;;;;;;;;5035126;28;20072;-69
2022/09/02 14:11:27;;;;;;;2.25;0.80;;;;;;;;;;5034913;28;20400;-68
2022/09/02 14:13:54;;;;;;;2.03;0.70;;;;;;;;;;5034762;28;20025;-64
2022/09/02 14:16:34;;;;;;;1.25;0.70;;;;;;;;;;5034783;28;20495;-68
2022/09/02 14:19:06;;;;;;;4.30;1.00;;;;;;;;;;5034994;28;20435;-69
2022/09/02 14:21:32;;;;;;;2.78;1.02;;;;;;;;;;5034783;28;20469;-68
2022/09/02 14:23:58;;;;;;;1.20;0.85;;;;;;;;;;5034200;28;20038;-65
2022/09/02 14:26:40;;;;;;;7.78;3.78;;;;;;;;;;5034386;28;20431;-66
2022/09/02 14:29:07;;;;;;;5.57;1.70;;;;;;;;;;5015059;28;20440;-64
2022/09/02 14:31:33;;;;;;;1.42;0.75;;;;;;;;;;5014867;28;20076;-68
2022/09/02 14:34:03;;;;;;;2.13;1.00;;;;;;;;;;5014161;28;20064;-69
2022/09/02 14:36:33;;;;;;;1.88;0.80;;;;;;;;;;5014252;28;20033;-67
2022/09/02 14:39:12;;;;;;;1.35;0.60;;;;;;;;;;5014463;28;20026;-67
2022/09/02 14:41:47;;;;;;;2.17;0.70;;;;;;;;;;5014596;28;20030;-66
2022/09/02 14:44:31;;;;;;;1.50;0.82;;;;;;;;;;5033975;28;20437;-65
2022/09/02 14:46:59;;;;;;;3.20;0.80;;;;;;;;;;5014940;28;20457;-68
2022/09/02 14:49:31;;;;;;;0.95;0.65;;;;;;;;;;5014763;28;20026;-67
2022/09/02 14:52:09;;;;;;;2.30;0.80;;;;;;;;;;5014642;28;20038;-66
2022/09/02 14:54:43;;;;;;;2.00;0.70;;;;;;;;;;5017028;28;20407;-67
2022/09/02 14:57:28;;;;;;;2.60;0.80;;;;;;;;;;5034391;28;20033;-64
2022/09/02 15:00:20;;;;;;;2.25;0.73;;;;;;;;;;5034203;28;20025;-68
2022/09/02 15:02:46;;;;;;;6.38;0.70;;;;;;;;;;5031197;28;20042;-68
2022/09/02 15:05:15;;;;;;;6.63;1.55;;;;;;;;;;5029598;28;20424;-64
2022/09/02 15:07:41;;;;;;;2.92;0.80;;;;;;;;;;5034350;28;20025;-68
2022/09/02 15:10:08;;;;;;;2.15;0.80;;;;;;;;;;5034121;28;20032;-67